createdAt,value
2018-09-01T00:02:25.415Z,92502.24
2018-09-01T00:05:01.252Z,92499.40
2018-09-01T00:07:36.983Z,92499.14
2018-09-01T00:10:12.869Z,92504.07
2018-09-01T00:12:49.161Z,92507.86
2018-09-01T00:15:27.003Z,92511.08
2018-09-01T00:18:02.834Z,92505.86
2018-09-01T00:20:38.563Z,92508.70
2018-09-01T00:23:14.572Z,92502.95
2018-09-01T00:25:50.554Z,92508.56
2018-09-01T00:28:26.402Z,92505.32
2018-09-01T00:31:02.820Z,92501.82
2018-09-01T00:33:39.200Z,92508.52
2018-09-01T00:36:15.139Z,92502.53
2018-09-01T00:38:56.177Z,92507.59
2018-09-01T00:41:33.022Z,92509.73
2018-09-01T00:44:08.891Z,92508.03
2018-09-01T00:46:44.836Z,92500.05
2018-09-01T00:49:20.871Z,92507.32
2018-09-01T00:51:56.519Z,92510.45
2018-09-01T00:54:32.486Z,92514.63
2018-09-01T00:57:08.975Z,92506.82
2018-09-01T00:59:44.884Z,92511.86
2018-09-01T01:02:20.702Z,92520.41
2018-09-01T01:04:56.617Z,92517.91
2018-09-01T01:07:32.497Z,92510.30
2018-09-01T01:10:08.576Z,92509.19
2018-09-01T01:12:45.101Z,92506.97
2018-09-01T01:15:20.970Z,92507.05
2018-09-01T01:17:57.268Z,92503.70
2018-09-01T01:20:33.089Z,92505.53
2018-09-01T01:23:08.949Z,92515.27
2018-09-01T01:25:44.977Z,92507.25
2018-09-01T01:28:20.649Z,92506.75
2018-09-01T01:30:56.611Z,92505.31
2018-09-01T01:33:32.909Z,92510.45
2018-09-01T01:36:08.708Z,92517.09
2018-09-01T01:38:45.828Z,92519.03
2018-09-01T01:41:22.726Z,92522.49
2018-09-01T01:43:58.446Z,92521.08
2018-09-01T01:46:34.431Z,92514.99
2018-09-01T01:49:10.501Z,92515.73
2018-09-01T01:51:46.434Z,92516.90
2018-09-01T01:54:22.235Z,92505.89
2018-09-01T01:56:58.296Z,92507.94
2018-09-01T01:59:33.916Z,92512.12
2018-09-01T02:02:10.248Z,92508.79
2018-09-01T02:04:45.979Z,92507.93
2018-09-01T02:07:21.763Z,92516.77
2018-09-01T02:09:57.762Z,92512.84
2018-09-01T02:12:33.571Z,92509.14
2018-09-01T02:15:09.580Z,92507.94
2018-09-01T02:17:45.498Z,92503.52
2018-09-01T02:20:21.264Z,92510.61
2018-09-01T02:22:57.195Z,92502.84
2018-09-01T02:25:32.991Z,92505.03
2018-09-01T02:28:08.793Z,92502.58
2018-09-01T02:30:44.744Z,92508.53
2018-09-01T02:33:20.575Z,92503.34
2018-09-01T02:35:56.365Z,92497.81
2018-09-01T02:38:32.292Z,92496.94
2018-09-01T02:41:08.434Z,92502.50
2018-09-01T02:43:44.414Z,92506.83
2018-09-01T02:46:20.175Z,92514.05
2018-09-01T02:48:56.110Z,92516.37
2018-09-01T02:51:31.881Z,92514.11
2018-09-01T02:54:07.775Z,92507.31
2018-09-01T02:56:43.382Z,92510.02
2018-09-01T02:59:19.310Z,92512.20
2018-09-01T03:01:55.927Z,92508.08
2018-09-01T03:04:31.863Z,92511.06
2018-09-01T03:07:07.623Z,92513.63
2018-09-01T03:09:43.431Z,92514.69
2018-09-01T03:12:19.194Z,92513.91
2018-09-01T03:14:55.130Z,92515.69
2018-09-01T03:17:30.861Z,92513.56
2018-09-01T03:20:06.909Z,92522.78
2018-09-01T03:22:42.663Z,92522.05
2018-09-01T03:25:18.526Z,92519.50
2018-09-01T03:27:55.855Z,92523.48
2018-09-01T03:30:32.700Z,92519.02
2018-09-01T03:33:08.547Z,92521.34
2018-09-01T03:35:44.401Z,92524.27
2018-09-01T03:38:20.274Z,92522.23
2018-09-01T03:40:56.205Z,92521.73
2018-09-01T03:43:32.103Z,92526.27
2018-09-01T03:46:08.033Z,92525.64
2018-09-01T03:48:45.450Z,92523.72
2018-09-01T03:51:21.507Z,92527.73
2018-09-01T03:53:57.420Z,92519.47
2018-09-01T03:56:33.306Z,92529.39
2018-09-01T03:59:09.214Z,92533.22
2018-09-01T04:01:45.363Z,92529.80
2018-09-01T04:04:21.137Z,92534.09
2018-09-01T04:06:57.058Z,92535.67
2018-09-01T04:09:32.801Z,92539.97
2018-09-01T04:12:09.570Z,92547.00
2018-09-01T04:14:50.471Z,92550.17
2018-09-01T04:17:26.450Z,92554.48
2018-09-01T04:20:02.297Z,92554.87
2018-09-01T04:22:38.147Z,92556.00
2018-09-01T04:25:13.917Z,92555.01
2018-09-01T04:27:49.572Z,92556.75
2018-09-01T04:30:25.438Z,92558.70
2018-09-01T04:33:01.666Z,92558.28
2018-09-01T04:35:38.081Z,92561.88
2018-09-01T04:38:14.968Z,92561.86
2018-09-01T04:40:50.857Z,92558.20
2018-09-01T04:43:27.241Z,92556.69
2018-09-01T04:46:03.694Z,92559.28
2018-09-01T04:48:39.730Z,92558.16
2018-09-01T04:51:15.789Z,92561.11
2018-09-01T04:53:51.548Z,92561.88
2018-09-01T04:56:27.533Z,92558.27
2018-09-01T04:59:03.365Z,92562.29
2018-09-01T05:01:39.130Z,92560.48
2018-09-01T05:04:15.245Z,92553.86
2018-09-01T05:06:51.549Z,92552.78
2018-09-01T05:09:27.746Z,92556.23
2018-09-01T05:12:03.829Z,92551.05
2018-09-01T05:14:39.636Z,92553.33
2018-09-01T05:17:15.981Z,92552.75
2018-09-01T05:19:51.848Z,92548.92
2018-09-01T05:22:27.593Z,92545.13
2018-09-01T05:25:03.471Z,92545.33
2018-09-01T05:27:39.929Z,92543.34
2018-09-01T05:30:16.181Z,92548.47
2018-09-01T05:32:52.107Z,92549.56
2018-09-01T05:35:28.061Z,92544.66
2018-09-01T05:38:04.160Z,92543.73
2018-09-01T05:40:40.209Z,92549.20
2018-09-01T05:43:16.374Z,92549.02
2018-09-01T05:45:52.840Z,92544.95
2018-09-01T05:48:28.696Z,92545.88
2018-09-01T05:51:04.715Z,92543.20
2018-09-01T05:53:40.556Z,92541.66
2018-09-01T05:56:16.945Z,92541.30
2018-09-01T05:58:52.756Z,92538.67
2018-09-01T06:01:28.974Z,92540.85
2018-09-01T06:04:04.960Z,92536.23
2018-09-01T06:06:42.520Z,92539.47
2018-09-01T06:09:18.404Z,92538.52
2018-09-01T06:11:54.301Z,92534.86
2018-09-01T06:14:30.546Z,92532.93
2018-09-01T06:17:11.169Z,92536.94
2018-09-01T06:19:47.132Z,92538.02
2018-09-01T06:22:23.193Z,92539.30
2018-09-01T06:25:00.106Z,92534.47
2018-09-01T06:27:38.706Z,92537.84
2018-09-01T06:30:18.945Z,92538.59
2018-09-01T06:32:55.201Z,92542.79
2018-09-01T06:35:31.473Z,92545.03
2018-09-01T06:38:07.500Z,92541.24
2018-09-01T06:40:38.475Z,92539.89
2018-09-01T06:43:13.612Z,92535.59
2018-09-01T06:45:44.650Z,92537.38
2018-09-01T06:48:16.265Z,92535.19
2018-09-01T06:50:47.218Z,92537.52
2018-09-01T06:53:18.525Z,92533.00
2018-09-01T06:55:51.225Z,92534.83
2018-09-01T06:58:22.214Z,92534.78
2018-09-01T07:00:53.650Z,92529.48
2018-09-01T07:03:24.505Z,92533.25
2018-09-01T07:05:56.361Z,92539.91
2018-09-01T07:08:27.183Z,92534.25
2018-09-01T07:10:58.697Z,92526.69
2018-09-01T07:13:29.837Z,92529.03
2018-09-01T07:16:03.247Z,92528.17
2018-09-01T07:18:34.171Z,92531.61
2018-09-01T07:21:05.658Z,92529.63
2018-09-01T07:23:36.478Z,92523.71
2018-09-01T07:26:07.929Z,92526.09
2018-09-01T07:28:41.392Z,92527.38
2018-09-01T07:31:12.583Z,92530.08
2018-09-01T07:33:43.750Z,92526.02
2018-09-01T07:36:14.928Z,92526.64
2018-09-01T07:38:45.942Z,92526.81
2018-09-01T07:41:17.165Z,92528.35
2018-09-01T07:43:48.048Z,92522.47
2018-09-01T07:46:18.853Z,92519.88
2018-09-01T07:48:50.019Z,92517.30
2018-09-01T07:51:21.436Z,92518.50
2018-09-01T07:56:58.044Z,92511.45
2018-09-01T07:59:28.892Z,92507.86
2018-09-01T08:02:00.099Z,92507.35
2018-09-01T08:04:30.908Z,92503.38
2018-09-01T08:07:01.756Z,92498.51
2018-09-01T08:09:32.551Z,92500.09
2018-09-01T08:12:03.364Z,92495.55
2018-09-01T08:14:34.360Z,92491.31
2018-09-01T08:17:05.948Z,92498.14
2018-09-01T08:19:37.162Z,92501.65
2018-09-01T08:22:08.255Z,92499.81
2018-09-01T08:24:39.282Z,92496.92
2018-09-01T08:27:10.120Z,92492.77
2018-09-01T08:29:41.587Z,92490.87
2018-09-01T08:32:13.198Z,92482.62
2018-09-01T08:34:44.336Z,92480.98
2018-09-01T08:37:15.216Z,92480.64
2018-09-01T08:39:46.744Z,92478.32
2018-09-01T08:42:17.565Z,92472.22
2018-09-01T08:44:48.871Z,92475.20
2018-09-01T08:47:20.004Z,92467.36
2018-09-01T08:49:50.963Z,92455.56
2018-09-01T08:52:21.931Z,92458.66
2018-09-01T08:54:52.749Z,92456.67
2018-09-01T08:57:23.657Z,92452.02
2018-09-01T08:59:58.717Z,92448.32
2018-09-01T09:02:30.263Z,92448.86
2018-09-01T09:05:01.554Z,92445.10
2018-09-01T09:07:32.818Z,92448.18
2018-09-01T09:10:05.125Z,92449.17
2018-09-01T09:12:37.773Z,92445.52
2018-09-01T09:15:08.659Z,92443.94
2018-09-01T09:17:42.295Z,92444.02
2018-09-01T09:20:16.239Z,92432.71
2018-09-01T09:22:47.455Z,92434.18
2018-09-01T09:25:19.855Z,92431.91
2018-09-01T09:27:50.802Z,92435.53
2018-09-01T09:30:21.689Z,92431.37
2018-09-01T09:32:54.464Z,92429.91
2018-09-01T09:35:25.233Z,92430.03
2018-09-01T09:37:56.216Z,92422.66
2018-09-01T09:40:27.004Z,92425.56
2018-09-01T09:42:58.483Z,92423.87
2018-09-01T09:45:29.273Z,92431.68
2018-09-01T09:48:00.173Z,92424.05
2018-09-01T09:50:30.967Z,92418.94
2018-09-01T09:53:02.068Z,92418.08
2018-09-01T09:55:33.072Z,92420.09
2018-09-01T09:58:04.004Z,92419.23
2018-09-01T10:00:40.132Z,92415.70
2018-09-01T10:03:11.138Z,92422.66
2018-09-01T10:05:42.661Z,92412.49
2018-09-01T10:08:13.679Z,92408.59
2018-09-01T10:10:44.482Z,92414.73
2018-09-01T10:13:15.325Z,92413.12
2018-09-01T10:15:46.761Z,92411.73
2018-09-01T10:18:17.849Z,92407.90
2018-09-01T10:20:48.778Z,92399.76
2018-09-01T10:23:19.661Z,92399.04
2018-09-01T10:25:51.230Z,92395.66
2018-09-01T10:28:22.054Z,92399.30
2018-09-01T10:30:52.909Z,92394.46
2018-09-01T10:33:23.965Z,92391.75
2018-09-01T10:35:55.473Z,92387.57
2018-09-01T10:38:26.844Z,92390.28
2018-09-01T10:40:57.902Z,92388.17
2018-09-01T10:43:28.810Z,92387.46
2018-09-01T10:45:59.672Z,92382.01
2018-09-01T10:48:42.857Z,92384.69
2018-09-01T10:51:13.654Z,92382.70
2018-09-01T10:53:45.155Z,92388.94
2018-09-01T10:56:15.964Z,92391.58
2018-09-01T10:58:46.823Z,92384.66
2018-09-01T11:01:17.648Z,92375.76
2018-09-01T11:03:48.500Z,92381.33
2018-09-01T11:06:19.345Z,92377.17
2018-09-01T11:08:50.249Z,92379.26
2018-09-01T11:11:21.096Z,92380.64
2018-09-01T11:13:51.931Z,92377.16
2018-09-01T11:16:23.073Z,92370.90
2018-09-01T11:18:54.089Z,92368.12
2018-09-01T11:21:25.220Z,92361.80
2018-09-01T11:23:56.205Z,92363.82
2018-09-01T11:26:27.724Z,92368.14
2018-09-01T11:28:58.535Z,92368.14
2018-09-01T11:31:29.365Z,92364.66
2018-09-01T11:34:00.338Z,92364.66
2018-09-01T11:36:31.184Z,92362.54
2018-09-01T11:39:03.193Z,92357.02
2018-09-01T11:41:34.039Z,92354.91
2018-09-01T11:44:06.584Z,92354.93
2018-09-01T11:46:37.450Z,92349.91
2018-09-01T11:49:08.284Z,92344.96
2018-09-01T11:51:39.145Z,92346.27
2018-09-01T11:54:10.459Z,92344.06
2018-09-01T11:56:41.351Z,92335.95
2018-09-01T11:59:12.631Z,92338.69
2018-09-01T12:01:43.447Z,92343.06
2018-09-01T12:04:14.312Z,92341.73
2018-09-01T12:06:45.219Z,92338.80
2018-09-01T12:09:16.166Z,92334.72
2018-09-01T12:11:47.255Z,92331.27
2018-09-01T12:14:18.116Z,92336.14
2018-09-01T12:16:49.343Z,92327.67
2018-09-01T12:19:20.164Z,92330.83
2018-09-01T12:21:51.013Z,92333.20
2018-09-01T12:24:21.886Z,92329.34
2018-09-01T12:26:53.577Z,92330.04
2018-09-01T12:29:24.462Z,92327.44
2018-09-01T12:31:55.252Z,92321.20
2018-09-01T12:34:26.285Z,92322.38
2018-09-01T12:36:57.061Z,92331.42
2018-09-01T12:39:27.991Z,92324.26
2018-09-01T12:41:59.062Z,92321.09
2018-09-01T12:44:30.081Z,92312.52
2018-09-01T12:47:00.875Z,92311.30
2018-09-01T12:49:31.713Z,92311.83
2018-09-01T12:52:02.684Z,92315.59
2018-09-01T12:54:33.829Z,92301.55
2018-09-01T12:57:04.628Z,92302.58
2018-09-01T12:59:35.573Z,92303.37
2018-09-01T13:02:06.507Z,92301.03
2018-09-01T13:04:37.349Z,92299.94
2018-09-01T13:07:14.745Z,92291.06
2018-09-01T13:09:45.637Z,92286.84
2018-09-01T13:12:16.495Z,92289.60
2018-09-01T13:14:47.761Z,92281.97
2018-09-01T13:17:18.676Z,92287.97
2018-09-01T13:19:49.519Z,92276.41
2018-09-01T13:22:20.322Z,92283.14
2018-09-01T13:24:51.188Z,92281.89
2018-09-01T13:27:21.970Z,92276.08
2018-09-01T13:29:53.818Z,92281.28
2018-09-01T13:32:25.268Z,92280.27
2018-09-01T13:34:56.156Z,92275.50
2018-09-01T13:37:27.172Z,92275.50
2018-09-01T13:39:58.027Z,92268.27
2018-09-01T13:42:29.068Z,92274.38
2018-09-01T13:45:00.548Z,92274.91
2018-09-01T13:47:31.574Z,92271.11
2018-09-01T13:50:02.454Z,92274.09
2018-09-01T13:52:33.566Z,92274.89
2018-09-01T13:55:04.910Z,92274.84
2018-09-01T13:57:35.699Z,92270.73
2018-09-01T14:00:07.456Z,92265.13
2018-09-01T14:02:38.294Z,92267.84
2018-09-01T14:05:09.168Z,92267.45
2018-09-01T14:07:39.994Z,92265.13
2018-09-01T14:10:11.146Z,92262.86
2018-09-01T14:12:42.980Z,92264.91
2018-09-01T14:15:13.967Z,92263.69
2018-09-01T14:17:45.441Z,92263.43
2018-09-01T14:20:16.293Z,92264.13
2018-09-01T14:22:47.224Z,92263.23
2018-09-01T14:25:18.960Z,92267.86
2018-09-01T14:27:49.807Z,92263.38
2018-09-01T14:30:20.931Z,92268.67
2018-09-01T14:32:51.833Z,92273.20
2018-09-01T14:35:22.948Z,92277.18
2018-09-01T14:37:53.743Z,92271.06
2018-09-01T14:40:25.162Z,92275.77
2018-09-01T14:42:56.916Z,92279.19
2018-09-01T14:45:27.845Z,92272.61
2018-09-01T14:47:58.671Z,92276.77
2018-09-01T14:50:29.651Z,92270.72
2018-09-01T14:53:02.001Z,92273.78
2018-09-01T14:55:33.025Z,92273.55
2018-09-01T14:58:03.899Z,92278.73
2018-09-01T15:00:35.697Z,92273.85
2018-09-01T15:03:06.642Z,92285.22
2018-09-01T15:05:37.468Z,92281.75
2018-09-01T15:08:09.238Z,92293.09
2018-09-01T15:10:40.301Z,92297.11
2018-09-01T15:13:11.114Z,92290.56
2018-09-01T15:15:42.321Z,92294.00
2018-09-01T15:18:13.903Z,92293.45
2018-09-01T15:20:45.371Z,92295.37
2018-09-01T15:23:16.302Z,92295.22
2018-09-01T15:25:47.717Z,92299.99
2018-09-01T15:28:18.951Z,92302.13
2018-09-01T15:30:49.845Z,92304.73
2018-09-01T15:33:23.316Z,92300.56
2018-09-01T15:35:54.434Z,92305.15
2018-09-01T15:38:26.297Z,92312.39
2018-09-01T15:40:58.172Z,92312.38
2018-09-01T15:43:29.429Z,92307.83
2018-09-01T15:46:00.269Z,92310.57
2018-09-01T15:48:31.497Z,92315.25
2018-09-01T15:51:02.541Z,92320.49
2018-09-01T15:53:33.337Z,92319.75
2018-09-01T15:56:04.569Z,92314.17
2018-09-01T15:58:36.345Z,92317.59
2018-09-01T16:01:07.686Z,92315.75
2018-09-01T16:03:38.709Z,92313.64
2018-09-01T16:06:09.744Z,92312.95
2018-09-01T16:08:40.541Z,92312.47
2018-09-01T16:11:11.465Z,92322.64
2018-09-01T16:13:42.351Z,92320.35
2018-09-01T16:16:14.013Z,92327.09
2018-09-01T16:18:45.124Z,92322.74
2018-09-01T16:21:15.935Z,92323.70
2018-09-01T16:23:46.987Z,92335.92
2018-09-01T16:26:17.915Z,92335.70
2018-09-01T16:28:48.931Z,92335.88
2018-09-01T16:31:19.777Z,92331.59
2018-09-01T16:33:50.664Z,92328.73
2018-09-01T16:36:21.510Z,92336.73
2018-09-01T16:38:52.329Z,92337.67
2018-09-01T16:41:23.268Z,92334.34
2018-09-01T16:43:54.771Z,92339.86
2018-09-01T16:46:26.608Z,92346.55
2018-09-01T16:48:57.558Z,92350.06
2018-09-01T16:51:28.525Z,92352.34
2018-09-01T16:53:59.335Z,92350.36
2018-09-01T16:56:30.326Z,92355.58
2018-09-01T16:59:01.134Z,92351.84
2018-09-01T17:01:32.164Z,92359.33
2018-09-01T17:04:02.988Z,92356.45
2018-09-01T17:06:33.885Z,92365.88
2018-09-01T17:09:05.969Z,92368.72
2018-09-01T17:11:36.874Z,92362.16
2018-09-01T17:14:07.701Z,92371.31
2018-09-01T17:16:38.543Z,92377.91
2018-09-01T17:19:09.472Z,92385.70
2018-09-01T17:21:42.760Z,92385.95
2018-09-01T17:24:15.344Z,92391.91
2018-09-01T17:26:48.181Z,92391.78
2018-09-01T17:29:27.672Z,92391.52
2018-09-01T17:32:01.867Z,92401.78
2018-09-01T17:34:32.884Z,92399.83
2018-09-01T17:37:03.715Z,92412.09
2018-09-01T17:39:34.923Z,92406.67
2018-09-01T17:42:06.287Z,92411.84
2018-09-01T17:44:37.065Z,92409.00
2018-09-01T17:47:09.577Z,92414.44
2018-09-01T17:49:41.594Z,92419.11
2018-09-01T17:52:12.440Z,92428.92
2018-09-01T17:54:43.432Z,92429.67
2018-09-01T17:57:17.757Z,92429.83
2018-09-01T17:59:49.361Z,92433.13
2018-09-01T18:02:20.480Z,92437.61
2018-09-01T18:04:51.789Z,92437.97
2018-09-01T18:07:23.074Z,92439.96
2018-09-01T18:09:56.545Z,92441.88
2018-09-01T18:12:28.018Z,92444.12
2018-09-01T18:14:58.875Z,92448.35
2018-09-01T18:17:29.996Z,92451.50
2018-09-01T18:20:01.032Z,92454.98
2018-09-01T18:22:31.995Z,92454.72
2018-09-01T18:25:02.917Z,92454.72
2018-09-01T18:27:33.903Z,92457.89
2018-09-01T18:30:05.273Z,92465.20
2018-09-01T18:32:36.585Z,92468.64
2018-09-01T18:35:08.363Z,92471.55
2018-09-01T18:37:40.054Z,92466.44
2018-09-01T18:40:10.911Z,92467.34
2018-09-01T18:42:41.837Z,92468.91
2018-09-01T18:45:12.652Z,92471.33
2018-09-01T18:47:43.475Z,92481.23
2018-09-01T18:50:14.268Z,92479.73
2018-09-01T18:52:45.193Z,92485.53
2018-09-01T18:55:16.166Z,92480.08
2018-09-01T18:57:47.383Z,92483.35
2018-09-01T19:00:18.213Z,92480.30
2018-09-01T19:02:49.266Z,92486.02
2018-09-01T19:05:20.386Z,92487.66
2018-09-01T19:07:51.341Z,92486.03
2018-09-01T19:10:22.302Z,92486.37
2018-09-01T19:12:53.848Z,92488.15
2018-09-01T19:15:24.667Z,92495.25
2018-09-01T19:17:55.513Z,92502.22
2018-09-01T19:20:26.523Z,92499.83
2018-09-01T19:22:57.347Z,92506.83
2018-09-01T19:25:28.744Z,92504.92
2018-09-01T19:28:00.237Z,92504.30
2018-09-01T19:30:31.052Z,92507.17
2018-09-01T19:33:01.903Z,92503.44
2018-09-01T19:35:32.698Z,92503.06
2018-09-01T19:38:03.712Z,92501.47
2018-09-01T19:40:34.628Z,92504.39
2018-09-01T19:43:06.223Z,92504.89
2018-09-01T19:45:37.918Z,92504.77
2018-09-01T19:48:09.758Z,92508.66
2018-09-01T19:50:40.563Z,92505.77
2018-09-01T19:53:11.426Z,92509.45
2018-09-01T19:55:42.244Z,92508.53
2018-09-01T19:58:13.275Z,92510.93
2018-09-01T20:00:49.919Z,92508.28
2018-09-01T20:03:25.821Z,92511.82
2018-09-01T20:06:01.725Z,92507.66
2018-09-01T20:08:37.661Z,92509.49
2018-09-01T20:11:13.425Z,92506.64
2018-09-01T20:13:49.522Z,92508.95
2018-09-01T20:16:25.272Z,92517.53
2018-09-01T20:19:01.049Z,92524.04
2018-09-01T20:21:36.952Z,92521.88
2018-09-01T20:24:12.968Z,92519.79
2018-09-01T20:26:48.935Z,92529.44
2018-09-01T20:29:24.841Z,92528.16
2018-09-01T20:32:00.893Z,92528.97
2018-09-01T20:34:40.878Z,92529.80
2018-09-01T20:37:18.004Z,92529.58
2018-09-01T20:39:53.834Z,92528.50
2018-09-01T20:42:30.301Z,92532.42
2018-09-01T20:45:06.631Z,92534.23
2018-09-01T20:47:42.622Z,92526.48
2018-09-01T20:50:18.511Z,92527.87
2018-09-01T20:52:54.273Z,92529.20
2018-09-01T20:55:36.721Z,92528.91
2018-09-01T20:58:14.090Z,92523.84
2018-09-01T21:00:49.848Z,92524.30
2018-09-01T21:03:25.637Z,92527.84
2018-09-01T21:06:01.681Z,92524.65
2018-09-01T21:08:37.594Z,92524.53
2018-09-01T21:11:13.471Z,92530.56
2018-09-01T21:13:49.865Z,92522.66
2018-09-01T21:16:25.815Z,92536.41
2018-09-01T21:19:01.827Z,92525.08
2018-09-01T21:21:37.755Z,92521.35
2018-09-01T21:24:14.195Z,92525.30
2018-09-01T21:26:49.884Z,92527.90
2018-09-01T21:29:25.717Z,92530.15
2018-09-01T21:32:01.644Z,92523.96
2018-09-01T21:34:37.408Z,92531.47
2018-09-01T21:37:13.241Z,92531.59
2018-09-01T21:39:49.168Z,92525.14
2018-09-01T21:42:25.057Z,92522.17
2018-09-01T21:45:01.049Z,92524.44
2018-09-01T21:47:37.145Z,92526.50
2018-09-01T21:50:14.659Z,92530.88
2018-09-01T21:52:50.626Z,92530.63
2018-09-01T21:55:26.487Z,92526.56
2018-09-01T21:58:02.159Z,92528.23
2018-09-01T22:00:43.684Z,92534.94
2018-09-01T22:03:21.060Z,92522.09
2018-09-01T22:05:56.779Z,92520.63
2018-09-01T22:08:32.791Z,92520.16
2018-09-01T22:11:08.451Z,92528.27
2018-09-01T22:13:44.279Z,92523.53
2018-09-01T22:16:20.097Z,92529.94
2018-09-01T22:18:55.972Z,92516.19
2018-09-01T22:21:31.732Z,92518.95
2018-09-01T22:24:08.267Z,92517.70
2018-09-01T22:26:43.876Z,92523.59
2018-09-01T22:29:19.887Z,92523.76
2018-09-01T22:31:55.661Z,92527.11
2018-09-01T22:34:31.488Z,92526.53
2018-09-01T22:37:08.177Z,92528.78
2018-09-01T22:39:44.143Z,92535.39
2018-09-01T22:42:19.916Z,92533.34
2018-09-01T22:44:55.712Z,92529.91
2018-09-01T22:47:33.099Z,92529.66
2018-09-01T22:50:10.143Z,92529.65
2018-09-01T22:52:45.860Z,92530.91
2018-09-01T22:55:21.811Z,92533.77
2018-09-01T22:57:58.094Z,92532.23
2018-09-01T23:00:33.797Z,92536.61
2018-09-01T23:03:09.913Z,92543.81
2018-09-01T23:05:45.796Z,92541.73
2018-09-01T23:08:21.975Z,92544.58
2018-09-01T23:10:57.766Z,92546.56
2018-09-01T23:13:33.564Z,92547.89
2018-09-01T23:16:09.395Z,92552.74
2018-09-01T23:18:45.915Z,92550.75
2018-09-01T23:21:21.722Z,92550.70
2018-09-01T23:23:58.328Z,92544.70
2018-09-01T23:26:34.101Z,92547.02
2018-09-01T23:29:09.850Z,92546.47
2018-09-01T23:31:46.457Z,92543.97
2018-09-01T23:34:22.215Z,92544.23
2018-09-01T23:36:58.223Z,92545.37
2018-09-01T23:39:34.213Z,92552.84
2018-09-01T23:42:10.084Z,92545.52
2018-09-01T23:44:45.885Z,92543.05
2018-09-01T23:47:21.766Z,92549.39
2018-09-01T23:49:57.489Z,92553.01
2018-09-01T23:52:33.433Z,92547.13
2018-09-01T23:55:09.413Z,92550.05
2018-09-01T23:57:45.220Z,92550.05
